createdAt,value
2023-05-10T00:13:10.001Z,2.20
2023-05-10T00:33:30.448Z,2.47
2023-05-10T00:53:50.735Z,2.30
2023-05-10T01:14:10.953Z,2.30
2023-05-10T01:34:30.848Z,3.25
2023-05-10T01:54:32.585Z,2.75
2023-05-10T02:14:34.325Z,3.92
2023-05-10T02:34:36.170Z,3.67
2023-05-10T02:54:37.782Z,4.47
2023-05-10T03:14:39.382Z,4.50
2023-05-10T03:34:41.722Z,5.43
2023-05-10T03:54:44.154Z,5.78
2023-05-10T04:14:45.820Z,4.53
2023-05-10T04:34:47.376Z,4.40
2023-05-10T04:54:48.957Z,4.90
2023-05-10T05:14:50.564Z,4.95
2023-05-10T05:34:52.149Z,5.88
2023-05-10T05:54:55.599Z,5.80
2023-05-10T06:14:57.245Z,4.50
2023-05-10T06:34:58.895Z,4.72
2023-05-10T06:55:00.535Z,4.43
2023-05-10T07:15:02.213Z,4.47
2023-05-10T07:35:03.767Z,3.67
2023-05-10T07:55:05.255Z,3.17
2023-05-10T08:15:07.116Z,2.97
2023-05-10T08:35:08.729Z,3.53
2023-05-10T08:55:10.370Z,3.10
2023-05-10T09:15:11.891Z,3.83
2023-05-10T09:35:13.439Z,3.58
2023-05-10T09:55:15.192Z,3.15
2023-05-10T10:15:17.024Z,3.47
2023-05-10T10:35:30.646Z,2.92
2023-05-10T10:55:37.291Z,2.60
2023-05-10T11:15:41.053Z,2.92
2023-05-10T11:35:43.624Z,2.80
2023-05-10T11:55:45.343Z,2.65
2023-05-10T12:15:49.361Z,2.42
2023-05-10T12:35:51.321Z,2.08
2023-05-10T12:55:52.787Z,1.88
2023-05-10T13:15:54.236Z,2.05
2023-05-10T13:35:55.901Z,2.00
2023-05-10T13:55:57.586Z,2.10
2023-05-10T14:15:59.126Z,1.92
2023-05-10T14:36:00.659Z,1.90
2023-05-10T14:56:02.455Z,2.13
2023-05-10T15:16:04.291Z,1.88
2023-05-10T15:36:05.781Z,2.17
2023-05-10T15:56:07.455Z,1.98
2023-05-10T16:16:11.170Z,2.15
2023-05-10T16:36:12.755Z,2.28
2023-05-10T16:56:14.450Z,4.10
2023-05-10T17:36:53.166Z,1.70
2023-05-10T17:56:56.015Z,2.03
2023-05-10T18:16:57.845Z,2.83
2023-05-10T18:36:59.483Z,2.30
2023-05-10T18:57:01.086Z,4.03
2023-05-10T19:17:02.664Z,2.53
2023-05-10T19:37:07.379Z,2.38
2023-05-10T19:57:09.156Z,4.72
2023-05-10T20:17:11.463Z,2.28
2023-05-10T20:37:13.161Z,2.28
2023-05-10T20:57:14.796Z,2.53
2023-05-10T21:17:18.126Z,2.97
2023-05-10T21:37:21.553Z,2.97
2023-05-10T21:57:23.343Z,2.67
2023-05-10T22:17:33.405Z,2.65
2023-05-10T22:38:15.578Z,3.05
2023-05-10T22:58:50.196Z,3.13
2023-05-10T23:18:52.065Z,2.90
2023-05-10T23:38:53.850Z,2.58
2023-05-10T23:58:55.365Z,2.90
